sensor_id;sensor_type;location;lat;lon;timestamp;P1;durP1;ratioP1;P2;durP2;ratioP2
33006;SDS011;19361;51.598;7.650;2024-02-23T00:00:42;0.80;;;0.57;;
33006;SDS011;19361;51.598;7.650;2024-02-23T00:05:43;0.80;;;0.80;;
33006;SDS011;19361;51.598;7.650;2024-02-23T00:10:43;1.25;;;0.80;;
33006;SDS011;19361;51.598;7.650;2024-02-23T00:15:44;0.70;;;0.70;;
33006;SDS011;19361;51.598;7.650;2024-02-23T00:20:45;1.17;;;0.75;;
33006;SDS011;19361;51.598;7.650;2024-02-23T00:25:47;1.00;;;0.88;;
33006;SDS011;19361;51.598;7.650;2024-02-23T00:30:47;0.80;;;0.80;;
33006;SDS011;19361;51.598;7.650;2024-02-23T00:35:48;1.35;;;0.60;;
33006;SDS011;19361;51.598;7.650;2024-02-23T00:40:49;0.50;;;0.50;;
33006;SDS011;19361;51.598;7.650;2024-02-23T00:45:49;0.55;;;0.55;;
33006;SDS011;19361;51.598;7.650;2024-02-23T00:50:50;0.70;;;0.70;;
33006;SDS011;19361;51.598;7.650;2024-02-23T00:55:51;1.35;;;0.70;;
33006;SDS011;19361;51.598;7.650;2024-02-23T01:00:51;0.65;;;0.65;;
33006;SDS011;19361;51.598;7.650;2024-02-23T01:05:52;0.70;;;0.70;;
33006;SDS011;19361;51.598;7.650;2024-02-23T01:10:53;0.70;;;0.63;;
33006;SDS011;19361;51.598;7.650;2024-02-23T01:15:54;0.80;;;0.80;;
33006;SDS011;19361;51.598;7.650;2024-02-23T01:20:56;0.88;;;0.88;;
33006;SDS011;19361;51.598;7.650;2024-02-23T01:25:57;1.67;;;0.90;;
33006;SDS011;19361;51.598;7.650;2024-02-23T01:30:59;5.05;;;1.27;;
33006;SDS011;19361;51.598;7.650;2024-02-23T01:36:00;1.95;;;1.00;;
33006;SDS011;19361;51.598;7.650;2024-02-23T01:41:01;1.25;;;0.90;;
33006;SDS011;19361;51.598;7.650;2024-02-23T01:46:02;1.63;;;1.10;;
33006;SDS011;19361;51.598;7.650;2024-02-23T01:51:04;2.58;;;1.02;;
33006;SDS011;19361;51.598;7.650;2024-02-23T01:56:05;1.17;;;0.90;;
33006;SDS011;19361;51.598;7.650;2024-02-23T02:01:06;1.27;;;1.08;;
33006;SDS011;19361;51.598;7.650;2024-02-23T02:06:07;1.45;;;1.13;;
33006;SDS011;19361;51.598;7.650;2024-02-23T02:11:09;2.47;;;1.10;;
33006;SDS011;19361;51.598;7.650;2024-02-23T02:16:10;3.75;;;1.35;;
33006;SDS011;19361;51.598;7.650;2024-02-23T02:21:11;1.17;;;1.00;;
33006;SDS011;19361;51.598;7.650;2024-02-23T02:26:12;2.13;;;1.05;;
33006;SDS011;19361;51.598;7.650;2024-02-23T02:31:13;2.47;;;1.25;;
33006;SDS011;19361;51.598;7.650;2024-02-23T02:36:14;0.93;;;0.93;;
33006;SDS011;19361;51.598;7.650;2024-02-23T02:41:15;4.35;;;1.17;;
33006;SDS011;19361;51.598;7.650;2024-02-23T02:46:17;5.05;;;1.45;;
33006;SDS011;19361;51.598;7.650;2024-02-23T02:51:18;3.03;;;1.20;;
33006;SDS011;19361;51.598;7.650;2024-02-23T02:56:18;6.53;;;1.40;;
33006;SDS011;19361;51.598;7.650;2024-02-23T03:01:19;5.65;;;1.65;;
33006;SDS011;19361;51.598;7.650;2024-02-23T03:06:20;3.08;;;1.25;;
33006;SDS011;19361;51.598;7.650;2024-02-23T03:11:20;2.83;;;1.42;;
33006;SDS011;19361;51.598;7.650;2024-02-23T03:16:21;3.97;;;1.33;;
33006;SDS011;19361;51.598;7.650;2024-02-23T03:21:26;4.68;;;1.45;;
33006;SDS011;19361;51.598;7.650;2024-02-23T03:26:26;3.67;;;1.40;;
33006;SDS011;19361;51.598;7.650;2024-02-23T03:31:27;9.05;;;2.25;;
33006;SDS011;19361;51.598;7.650;2024-02-23T03:36:28;6.22;;;1.45;;
33006;SDS011;19361;51.598;7.650;2024-02-23T03:41:28;5.72;;;1.77;;
33006;SDS011;19361;51.598;7.650;2024-02-23T03:46:29;7.40;;;1.50;;
33006;SDS011;19361;51.598;7.650;2024-02-23T03:51:30;4.03;;;1.48;;
33006;SDS011;19361;51.598;7.650;2024-02-23T03:56:39;2.50;;;1.00;;
33006;SDS011;19361;51.598;7.650;2024-02-23T04:01:41;5.93;;;1.58;;
33006;SDS011;19361;51.598;7.650;2024-02-23T04:06:42;6.55;;;1.60;;
33006;SDS011;19361;51.598;7.650;2024-02-23T04:11:42;6.30;;;1.25;;
33006;SDS011;19361;51.598;7.650;2024-02-23T04:16:43;6.55;;;2.30;;
33006;SDS011;19361;51.598;7.650;2024-02-23T04:21:44;4.43;;;1.55;;
33006;SDS011;19361;51.598;7.650;2024-02-23T04:26:44;3.50;;;1.67;;
33006;SDS011;19361;51.598;7.650;2024-02-23T04:31:45;3.70;;;1.25;;
33006;SDS011;19361;51.598;7.650;2024-02-23T04:36:46;5.10;;;1.52;;
33006;SDS011;19361;51.598;7.650;2024-02-23T04:41:47;4.63;;;1.60;;
33006;SDS011;19361;51.598;7.650;2024-02-23T04:46:48;4.03;;;1.15;;
33006;SDS011;19361;51.598;7.650;2024-02-23T04:51:48;4.63;;;1.60;;
33006;SDS011;19361;51.598;7.650;2024-02-23T04:56:49;5.15;;;1.30;;
33006;SDS011;19361;51.598;7.650;2024-02-23T05:01:50;6.10;;;1.35;;
33006;SDS011;19361;51.598;7.650;2024-02-23T05:06:51;6.32;;;1.50;;
33006;SDS011;19361;51.598;7.650;2024-02-23T05:11:51;4.43;;;2.00;;
33006;SDS011;19361;51.598;7.650;2024-02-23T05:16:52;3.05;;;1.40;;
33006;SDS011;19361;51.598;7.650;2024-02-23T05:21:53;3.30;;;1.35;;
33006;SDS011;19361;51.598;7.650;2024-02-23T05:26:53;2.47;;;1.55;;
33006;SDS011;19361;51.598;7.650;2024-02-23T05:31:54;5.15;;;1.38;;
33006;SDS011;19361;51.598;7.650;2024-02-23T05:36:55;7.40;;;1.38;;
33006;SDS011;19361;51.598;7.650;2024-02-23T05:41:55;5.72;;;1.40;;
33006;SDS011;19361;51.598;7.650;2024-02-23T05:46:57;6.95;;;1.30;;
33006;SDS011;19361;51.598;7.650;2024-02-23T05:51:57;4.90;;;1.50;;
33006;SDS011;19361;51.598;7.650;2024-02-23T05:56:58;4.72;;;1.50;;
33006;SDS011;19361;51.598;7.650;2024-02-23T06:01:59;8.65;;;1.70;;
33006;SDS011;19361;51.598;7.650;2024-02-23T06:06:59;2.42;;;1.23;;
33006;SDS011;19361;51.598;7.650;2024-02-23T06:12:00;4.72;;;1.38;;
33006;SDS011;19361;51.598;7.650;2024-02-23T06:17:01;5.50;;;1.67;;
33006;SDS011;19361;51.598;7.650;2024-02-23T06:22:02;3.63;;;1.23;;
33006;SDS011;19361;51.598;7.650;2024-02-23T06:27:03;7.47;;;1.65;;
33006;SDS011;19361;51.598;7.650;2024-02-23T06:32:04;5.93;;;1.33;;
33006;SDS011;19361;51.598;7.650;2024-02-23T06:37:05;5.72;;;1.38;;
33006;SDS011;19361;51.598;7.650;2024-02-23T06:42:06;3.45;;;1.30;;
33006;SDS011;19361;51.598;7.650;2024-02-23T06:47:07;8.52;;;1.80;;
33006;SDS011;19361;51.598;7.650;2024-02-23T06:52:07;8.23;;;1.80;;
33006;SDS011;19361;51.598;7.650;2024-02-23T06:57:09;2.97;;;1.42;;
33006;SDS011;19361;51.598;7.650;2024-02-23T07:02:10;4.30;;;1.45;;
33006;SDS011;19361;51.598;7.650;2024-02-23T07:07:11;4.70;;;1.85;;
33006;SDS011;19361;51.598;7.650;2024-02-23T07:12:11;4.38;;;1.50;;
33006;SDS011;19361;51.598;7.650;2024-02-23T07:17:16;4.35;;;1.40;;
33006;SDS011;19361;51.598;7.650;2024-02-23T07:22:17;4.28;;;1.40;;
33006;SDS011;19361;51.598;7.650;2024-02-23T07:27:18;6.63;;;1.60;;
33006;SDS011;19361;51.598;7.650;2024-02-23T07:32:19;4.40;;;1.70;;
33006;SDS011;19361;51.598;7.650;2024-02-23T07:37:20;7.07;;;1.58;;
33006;SDS011;19361;51.598;7.650;2024-02-23T07:42:20;6.43;;;1.83;;
33006;SDS011;19361;51.598;7.650;2024-02-23T07:47:21;7.03;;;1.67;;
33006;SDS011;19361;51.598;7.650;2024-02-23T07:52:22;5.70;;;1.70;;
33006;SDS011;19361;51.598;7.650;2024-02-23T07:57:24;5.60;;;1.70;;
33006;SDS011;19361;51.598;7.650;2024-02-23T08:02:24;6.97;;;2.05;;
33006;SDS011;19361;51.598;7.650;2024-02-23T08:07:25;5.65;;;1.65;;
33006;SDS011;19361;51.598;7.650;2024-02-23T08:12:28;4.55;;;1.70;;
33006;SDS011;19361;51.598;7.650;2024-02-23T08:17:29;4.07;;;1.40;;
33006;SDS011;19361;51.598;7.650;2024-02-23T08:22:29;4.97;;;1.60;;
33006;SDS011;19361;51.598;7.650;2024-02-23T08:27:30;9.85;;;1.77;;
33006;SDS011;19361;51.598;7.650;2024-02-23T08:32:31;5.80;;;1.60;;
33006;SDS011;19361;51.598;7.650;2024-02-23T08:37:31;3.65;;;1.60;;
33006;SDS011;19361;51.598;7.650;2024-02-23T08:42:32;3.88;;;1.52;;
33006;SDS011;19361;51.598;7.650;2024-02-23T08:47:33;5.15;;;1.80;;
33006;SDS011;19361;51.598;7.650;2024-02-23T08:52:35;6.60;;;1.85;;
33006;SDS011;19361;51.598;7.650;2024-02-23T08:57:36;3.20;;;1.50;;
33006;SDS011;19361;51.598;7.650;2024-02-23T09:02:36;6.30;;;1.48;;
33006;SDS011;19361;51.598;7.650;2024-02-23T09:07:38;5.15;;;1.30;;
33006;SDS011;19361;51.598;7.650;2024-02-23T09:12:38;5.45;;;1.60;;
33006;SDS011;19361;51.598;7.650;2024-02-23T09:17:40;5.38;;;1.40;;
33006;SDS011;19361;51.598;7.650;2024-02-23T09:22:41;3.85;;;1.33;;
33006;SDS011;19361;51.598;7.650;2024-02-23T09:27:42;4.28;;;1.77;;
33006;SDS011;19361;51.598;7.650;2024-02-23T09:32:43;8.77;;;1.80;;
33006;SDS011;19361;51.598;7.650;2024-02-23T09:37:44;5.35;;;1.70;;
33006;SDS011;19361;51.598;7.650;2024-02-23T09:42:47;5.03;;;1.30;;
33006;SDS011;19361;51.598;7.650;2024-02-23T09:47:57;9.13;;;1.80;;
33006;SDS011;19361;51.598;7.650;2024-02-23T09:52:58;6.40;;;1.70;;
33006;SDS011;19361;51.598;7.650;2024-02-23T09:58:01;6.07;;;1.90;;
33006;SDS011;19361;51.598;7.650;2024-02-23T10:03:04;4.47;;;1.88;;
33006;SDS011;19361;51.598;7.650;2024-02-23T10:08:05;5.85;;;1.45;;
33006;SDS011;19361;51.598;7.650;2024-02-23T10:13:06;5.28;;;1.30;;
33006;SDS011;19361;51.598;7.650;2024-02-23T10:18:08;3.28;;;1.42;;
33006;SDS011;19361;51.598;7.650;2024-02-23T10:23:08;6.10;;;1.52;;
33006;SDS011;19361;51.598;7.650;2024-02-23T10:28:09;9.30;;;1.50;;
33006;SDS011;19361;51.598;7.650;2024-02-23T10:33:10;2.85;;;1.40;;
33006;SDS011;19361;51.598;7.650;2024-02-23T10:38:14;4.80;;;1.70;;
33006;SDS011;19361;51.598;7.650;2024-02-23T10:43:18;3.30;;;1.15;;
33006;SDS011;19361;51.598;7.650;2024-02-23T10:48:21;7.07;;;1.95;;
33006;SDS011;19361;51.598;7.650;2024-02-23T10:53:22;10.48;;;1.38;;
33006;SDS011;19361;51.598;7.650;2024-02-23T10:58:24;3.83;;;1.35;;
33006;SDS011;19361;51.598;7.650;2024-02-23T11:03:25;4.68;;;1.45;;
33006;SDS011;19361;51.598;7.650;2024-02-23T11:08:29;4.10;;;1.30;;
33006;SDS011;19361;51.598;7.650;2024-02-23T11:13:39;1.55;;;1.00;;
33006;SDS011;19361;51.598;7.650;2024-02-23T11:23:47;3.20;;;1.83;;
33006;SDS011;19361;51.598;7.650;2024-02-23T11:28:50;2.83;;;1.30;;
33006;SDS011;19361;51.598;7.650;2024-02-23T11:33:55;4.20;;;1.38;;
33006;SDS011;19361;51.598;7.650;2024-02-23T11:38:57;3.60;;;1.77;;
33006;SDS011;19361;51.598;7.650;2024-02-23T11:43:59;4.05;;;1.40;;
33006;SDS011;19361;51.598;7.650;2024-02-23T11:49:00;3.83;;;1.77;;
33006;SDS011;19361;51.598;7.650;2024-02-23T11:54:00;4.75;;;1.50;;
33006;SDS011;19361;51.598;7.650;2024-02-23T11:59:01;2.60;;;1.38;;
33006;SDS011;19361;51.598;7.650;2024-02-23T12:04:02;4.80;;;1.83;;
33006;SDS011;19361;51.598;7.650;2024-02-23T12:09:03;3.38;;;1.35;;
33006;SDS011;19361;51.598;7.650;2024-02-23T12:14:05;3.75;;;1.50;;
33006;SDS011;19361;51.598;7.650;2024-02-23T12:19:09;6.93;;;1.67;;
33006;SDS011;19361;51.598;7.650;2024-02-23T12:24:09;5.85;;;1.20;;
33006;SDS011;19361;51.598;7.650;2024-02-23T12:29:10;2.38;;;1.20;;
33006;SDS011;19361;51.598;7.650;2024-02-23T12:34:11;5.20;;;1.50;;
33006;SDS011;19361;51.598;7.650;2024-02-23T12:39:14;2.42;;;1.60;;
33006;SDS011;19361;51.598;7.650;2024-02-23T12:44:15;4.00;;;1.88;;
33006;SDS011;19361;51.598;7.650;2024-02-23T12:49:16;3.08;;;1.10;;
33006;SDS011;19361;51.598;7.650;2024-02-23T12:54:16;3.10;;;1.13;;
33006;SDS011;19361;51.598;7.650;2024-02-23T12:59:17;4.32;;;1.40;;
33006;SDS011;19361;51.598;7.650;2024-02-23T13:04:18;3.75;;;0.90;;
33006;SDS011;19361;51.598;7.650;2024-02-23T13:09:18;3.97;;;1.40;;
33006;SDS011;19361;51.598;7.650;2024-02-23T13:14:19;3.80;;;1.40;;
33006;SDS011;19361;51.598;7.650;2024-02-23T13:19:20;1.80;;;1.05;;
33006;SDS011;19361;51.598;7.650;2024-02-23T13:24:20;3.90;;;1.23;;
33006;SDS011;19361;51.598;7.650;2024-02-23T13:29:21;1.77;;;1.27;;
33006;SDS011;19361;51.598;7.650;2024-02-23T13:34:22;4.07;;;1.20;;
33006;SDS011;19361;51.598;7.650;2024-02-23T13:39:22;6.20;;;1.20;;
33006;SDS011;19361;51.598;7.650;2024-02-23T13:44:23;2.70;;;1.27;;
33006;SDS011;19361;51.598;7.650;2024-02-23T13:49:24;4.22;;;1.30;;
33006;SDS011;19361;51.598;7.650;2024-02-23T13:54:25;3.53;;;1.40;;
33006;SDS011;19361;51.598;7.650;2024-02-23T13:59:26;3.08;;;1.30;;
33006;SDS011;19361;51.598;7.650;2024-02-23T14:04:27;4.07;;;1.38;;
33006;SDS011;19361;51.598;7.650;2024-02-23T14:09:27;2.03;;;1.10;;
33006;SDS011;19361;51.598;7.650;2024-02-23T14:14:28;3.03;;;1.17;;
33006;SDS011;19361;51.598;7.650;2024-02-23T14:19:29;4.47;;;1.52;;
33006;SDS011;19361;51.598;7.650;2024-02-23T14:24:29;3.22;;;1.23;;
33006;SDS011;19361;51.598;7.650;2024-02-23T14:29:30;5.20;;;1.75;;
33006;SDS011;19361;51.598;7.650;2024-02-23T14:34:31;4.65;;;1.38;;
33006;SDS011;19361;51.598;7.650;2024-02-23T14:39:33;2.67;;;1.23;;
33006;SDS011;19361;51.598;7.650;2024-02-23T14:44:34;4.68;;;1.70;;
33006;SDS011;19361;51.598;7.650;2024-02-23T14:49:35;3.47;;;1.48;;
33006;SDS011;19361;51.598;7.650;2024-02-23T14:54:36;5.13;;;1.75;;
33006;SDS011;19361;51.598;7.650;2024-02-23T14:59:37;6.13;;;1.80;;
33006;SDS011;19361;51.598;7.650;2024-02-23T15:04:46;2.53;;;1.30;;
33006;SDS011;19361;51.598;7.650;2024-02-23T15:09:47;5.95;;;2.17;;
33006;SDS011;19361;51.598;7.650;2024-02-23T15:14:47;2.40;;;1.15;;
33006;SDS011;19361;51.598;7.650;2024-02-23T15:19:48;3.45;;;1.25;;
33006;SDS011;19361;51.598;7.650;2024-02-23T15:24:49;5.00;;;1.90;;
33006;SDS011;19361;51.598;7.650;2024-02-23T15:29:49;6.10;;;1.73;;
33006;SDS011;19361;51.598;7.650;2024-02-23T15:34:50;4.50;;;1.52;;
33006;SDS011;19361;51.598;7.650;2024-02-23T15:39:51;6.18;;;1.25;;
33006;SDS011;19361;51.598;7.650;2024-02-23T15:44:52;4.90;;;1.23;;
33006;SDS011;19361;51.598;7.650;2024-02-23T15:49:54;2.22;;;1.13;;
33006;SDS011;19361;51.598;7.650;2024-02-23T15:54:55;3.78;;;1.77;;
33006;SDS011;19361;51.598;7.650;2024-02-23T15:59:55;4.60;;;1.85;;
33006;SDS011;19361;51.598;7.650;2024-02-23T16:04:56;5.15;;;1.67;;
33006;SDS011;19361;51.598;7.650;2024-02-23T16:09:57;3.70;;;1.45;;
33006;SDS011;19361;51.598;7.650;2024-02-23T16:14:58;2.25;;;1.50;;
33006;SDS011;19361;51.598;7.650;2024-02-23T16:19:59;3.30;;;1.50;;
33006;SDS011;19361;51.598;7.650;2024-02-23T16:25:00;5.28;;;2.10;;
33006;SDS011;19361;51.598;7.650;2024-02-23T16:30:01;2.47;;;1.40;;
33006;SDS011;19361;51.598;7.650;2024-02-23T16:35:02;4.15;;;1.40;;
33006;SDS011;19361;51.598;7.650;2024-02-23T16:40:05;2.03;;;1.30;;
33006;SDS011;19361;51.598;7.650;2024-02-23T16:45:08;2.22;;;1.17;;
33006;SDS011;19361;51.598;7.650;2024-02-23T16:50:09;2.70;;;1.73;;
33006;SDS011;19361;51.598;7.650;2024-02-23T16:55:09;4.55;;;1.40;;
33006;SDS011;19361;51.598;7.650;2024-02-23T17:00:10;3.22;;;1.23;;
33006;SDS011;19361;51.598;7.650;2024-02-23T17:05:12;4.38;;;1.25;;
33006;SDS011;19361;51.598;7.650;2024-02-23T17:10:12;3.22;;;1.65;;
33006;SDS011;19361;51.598;7.650;2024-02-23T17:15:14;1.98;;;1.15;;
33006;SDS011;19361;51.598;7.650;2024-02-23T17:20:15;3.58;;;1.60;;
33006;SDS011;19361;51.598;7.650;2024-02-23T17:25:17;4.72;;;1.90;;
33006;SDS011;19361;51.598;7.650;2024-02-23T17:30:18;3.45;;;1.70;;
33006;SDS011;19361;51.598;7.650;2024-02-23T17:35:19;4.38;;;1.67;;
33006;SDS011;19361;51.598;7.650;2024-02-23T17:40:20;5.57;;;1.52;;
33006;SDS011;19361;51.598;7.650;2024-02-23T17:45:20;3.70;;;1.80;;
33006;SDS011;19361;51.598;7.650;2024-02-23T17:50:21;4.05;;;1.70;;
33006;SDS011;19361;51.598;7.650;2024-02-23T17:55:22;3.70;;;1.95;;
33006;SDS011;19361;51.598;7.650;2024-02-23T18:00:23;1.90;;;1.65;;
33006;SDS011;19361;51.598;7.650;2024-02-23T18:05:23;3.45;;;2.20;;
33006;SDS011;19361;51.598;7.650;2024-02-23T18:10:24;4.32;;;2.90;;
33006;SDS011;19361;51.598;7.650;2024-02-23T18:15:25;8.85;;;4.10;;
33006;SDS011;19361;51.598;7.650;2024-02-23T18:20:26;8.02;;;4.28;;
33006;SDS011;19361;51.598;7.650;2024-02-23T18:25:26;6.70;;;2.95;;
33006;SDS011;19361;51.598;7.650;2024-02-23T18:30:27;3.80;;;2.22;;
33006;SDS011;19361;51.598;7.650;2024-02-23T18:35:27;9.40;;;2.60;;
33006;SDS011;19361;51.598;7.650;2024-02-23T18:40:29;6.60;;;3.95;;
33006;SDS011;19361;51.598;7.650;2024-02-23T18:45:30;8.50;;;4.70;;
33006;SDS011;19361;51.598;7.650;2024-02-23T18:50:32;5.45;;;2.38;;
33006;SDS011;19361;51.598;7.650;2024-02-23T18:55:32;5.20;;;1.98;;
33006;SDS011;19361;51.598;7.650;2024-02-23T19:00:37;6.47;;;2.30;;
33006;SDS011;19361;51.598;7.650;2024-02-23T19:05:38;6.05;;;2.58;;
33006;SDS011;19361;51.598;7.650;2024-02-23T19:10:42;4.18;;;2.20;;
33006;SDS011;19361;51.598;7.650;2024-02-23T19:15:43;3.85;;;2.00;;
33006;SDS011;19361;51.598;7.650;2024-02-23T19:20:44;2.95;;;1.80;;
33006;SDS011;19361;51.598;7.650;2024-02-23T19:25:45;5.90;;;2.95;;
33006;SDS011;19361;51.598;7.650;2024-02-23T19:30:46;9.77;;;5.25;;
33006;SDS011;19361;51.598;7.650;2024-02-23T19:35:47;8.70;;;3.72;;
33006;SDS011;19361;51.598;7.650;2024-02-23T19:40:47;3.83;;;2.30;;
33006;SDS011;19361;51.598;7.650;2024-02-23T19:45:48;7.78;;;2.75;;
33006;SDS011;19361;51.598;7.650;2024-02-23T19:50:49;7.40;;;2.70;;
33006;SDS011;19361;51.598;7.650;2024-02-23T19:55:50;10.05;;;4.45;;
33006;SDS011;19361;51.598;7.650;2024-02-23T20:00:51;6.60;;;3.65;;
33006;SDS011;19361;51.598;7.650;2024-02-23T20:05:52;6.93;;;3.90;;
33006;SDS011;19361;51.598;7.650;2024-02-23T20:10:53;7.10;;;3.95;;
33006;SDS011;19361;51.598;7.650;2024-02-23T20:15:53;8.75;;;3.70;;
33006;SDS011;19361;51.598;7.650;2024-02-23T20:20:54;6.32;;;3.08;;
33006;SDS011;19361;51.598;7.650;2024-02-23T20:25:55;6.97;;;3.33;;
33006;SDS011;19361;51.598;7.650;2024-02-23T20:30:56;5.25;;;3.72;;
33006;SDS011;19361;51.598;7.650;2024-02-23T20:35:58;7.07;;;2.80;;
33006;SDS011;19361;51.598;7.650;2024-02-23T20:40:59;5.57;;;2.60;;
33006;SDS011;19361;51.598;7.650;2024-02-23T20:46:00;3.20;;;2.30;;
33006;SDS011;19361;51.598;7.650;2024-02-23T20:51:00;6.45;;;2.45;;
33006;SDS011;19361;51.598;7.650;2024-02-23T20:56:05;6.43;;;1.92;;
33006;SDS011;19361;51.598;7.650;2024-02-23T21:01:06;4.45;;;1.90;;
33006;SDS011;19361;51.598;7.650;2024-02-23T21:06:07;2.75;;;1.83;;
33006;SDS011;19361;51.598;7.650;2024-02-23T21:11:07;4.53;;;1.58;;
33006;SDS011;19361;51.598;7.650;2024-02-23T21:16:08;4.25;;;2.38;;
33006;SDS011;19361;51.598;7.650;2024-02-23T21:21:09;2.78;;;1.60;;
33006;SDS011;19361;51.598;7.650;2024-02-23T21:26:09;5.07;;;2.05;;
33006;SDS011;19361;51.598;7.650;2024-02-23T21:31:12;3.53;;;1.70;;
33006;SDS011;19361;51.598;7.650;2024-02-23T21:36:13;3.63;;;1.83;;
33006;SDS011;19361;51.598;7.650;2024-02-23T21:41:14;4.32;;;1.80;;
33006;SDS011;19361;51.598;7.650;2024-02-23T21:46:17;5.38;;;1.58;;
33006;SDS011;19361;51.598;7.650;2024-02-23T21:51:17;6.03;;;2.20;;
33006;SDS011;19361;51.598;7.650;2024-02-23T21:56:18;4.78;;;2.03;;
33006;SDS011;19361;51.598;7.650;2024-02-23T22:01:19;7.68;;;2.10;;
33006;SDS011;19361;51.598;7.650;2024-02-23T22:06:19;2.45;;;1.70;;
33006;SDS011;19361;51.598;7.650;2024-02-23T22:11:20;2.85;;;1.52;;
33006;SDS011;19361;51.598;7.650;2024-02-23T22:16:21;2.17;;;1.73;;
33006;SDS011;19361;51.598;7.650;2024-02-23T22:21:23;2.35;;;1.58;;
33006;SDS011;19361;51.598;7.650;2024-02-23T22:26:23;3.15;;;1.60;;
33006;SDS011;19361;51.598;7.650;2024-02-23T22:31:24;2.63;;;2.13;;
33006;SDS011;19361;51.598;7.650;2024-02-23T22:36:24;7.65;;;2.08;;
33006;SDS011;19361;51.598;7.650;2024-02-23T22:41:25;4.70;;;1.92;;
33006;SDS011;19361;51.598;7.650;2024-02-23T22:46:26;3.60;;;1.50;;
33006;SDS011;19361;51.598;7.650;2024-02-23T22:51:27;4.25;;;1.60;;
33006;SDS011;19361;51.598;7.650;2024-02-23T22:56:27;5.82;;;1.50;;
33006;SDS011;19361;51.598;7.650;2024-02-23T23:01:28;2.28;;;1.33;;
33006;SDS011;19361;51.598;7.650;2024-02-23T23:06:29;4.60;;;1.80;;
33006;SDS011;19361;51.598;7.650;2024-02-23T23:11:30;5.70;;;1.63;;
33006;SDS011;19361;51.598;7.650;2024-02-23T23:16:31;4.90;;;1.60;;
33006;SDS011;19361;51.598;7.650;2024-02-23T23:21:32;2.70;;;1.48;;
33006;SDS011;19361;51.598;7.650;2024-02-23T23:26:33;3.10;;;1.77;;
33006;SDS011;19361;51.598;7.650;2024-02-23T23:31:33;2.45;;;1.73;;
33006;SDS011;19361;51.598;7.650;2024-02-23T23:36:34;1.65;;;1.55;;
33006;SDS011;19361;51.598;7.650;2024-02-23T23:41:35;3.25;;;1.60;;
33006;SDS011;19361;51.598;7.650;2024-02-23T23:46:35;4.00;;;1.50;;
33006;SDS011;19361;51.598;7.650;2024-02-23T23:51:36;2.97;;;1.35;;
33006;SDS011;19361;51.598;7.650;2024-02-23T23:56:37;3.15;;;1.60;;
